createdAt,value
2023-07-28T00:00:38.234Z,96.02
2023-07-28T00:03:09.724Z,96.06
2023-07-28T00:05:41.073Z,95.88
2023-07-28T00:08:11.962Z,95.83
2023-07-28T00:10:45.258Z,95.96
2023-07-28T00:13:16.356Z,95.71
2023-07-28T00:15:47.305Z,95.77
2023-07-28T00:18:19.602Z,95.72
2023-07-28T00:20:50.864Z,95.66
2023-07-28T00:23:21.511Z,95.68
2023-07-28T00:25:52.148Z,95.69
2023-07-28T00:28:22.885Z,95.73
2023-07-28T00:30:54.458Z,95.50
2023-07-28T00:33:26.030Z,95.66
2023-07-28T00:35:56.889Z,95.56
2023-07-28T00:38:27.842Z,95.59
2023-07-28T00:40:59.762Z,95.59
2023-07-28T00:43:30.801Z,95.51
2023-07-28T00:46:02.111Z,95.49
2023-07-28T00:48:33.197Z,95.50
2023-07-28T00:51:04.429Z,95.48
2023-07-28T00:53:36.303Z,95.45
2023-07-28T00:56:07.914Z,95.57
2023-07-28T00:58:38.859Z,95.50
2023-07-28T01:01:09.637Z,95.56
2023-07-28T01:03:40.809Z,95.49
2023-07-28T01:06:20.957Z,95.65
2023-07-28T01:08:59.058Z,95.64
2023-07-28T01:11:30.796Z,95.56
2023-07-28T01:14:01.402Z,95.59
2023-07-28T01:16:32.632Z,95.52
2023-07-28T01:19:03.699Z,95.49
2023-07-28T01:21:35.471Z,95.45
2023-07-28T01:24:17.795Z,95.48
2023-07-28T01:26:50.166Z,95.44
2023-07-28T01:29:21.944Z,95.37
2023-07-28T01:31:53.186Z,95.36
2023-07-28T01:34:24.257Z,95.39
2023-07-28T01:36:55.294Z,95.28
2023-07-28T01:39:26.088Z,95.18
2023-07-28T01:41:57.033Z,95.25
2023-07-28T01:44:27.694Z,95.23
2023-07-28T01:46:58.691Z,95.26
2023-07-28T01:49:29.272Z,95.27
2023-07-28T01:52:00.012Z,95.23
2023-07-28T01:54:30.614Z,95.35
2023-07-28T01:57:02.429Z,95.33
2023-07-28T01:59:33.118Z,95.30
2023-07-28T02:02:03.847Z,95.35
2023-07-28T02:04:34.619Z,95.32
2023-07-28T02:07:05.309Z,95.36
2023-07-28T02:09:35.984Z,95.41
2023-07-28T02:12:07.293Z,95.39
2023-07-28T02:14:38.085Z,95.51
2023-07-28T02:17:09.078Z,95.57
2023-07-28T02:19:40.252Z,95.71
2023-07-28T02:22:12.459Z,95.76
2023-07-28T02:24:43.143Z,95.90
2023-07-28T02:27:13.797Z,95.86
2023-07-28T02:29:44.473Z,95.88
2023-07-28T02:32:15.030Z,96.00
2023-07-28T02:34:46.443Z,96.01
2023-07-28T02:37:18.035Z,96.05
2023-07-28T02:39:48.773Z,96.03
2023-07-28T02:42:19.974Z,95.98
2023-07-28T02:44:50.928Z,96.02
2023-07-28T02:47:21.896Z,96.05
2023-07-28T02:49:52.752Z,96.11
2023-07-28T02:52:23.376Z,96.10
2023-07-28T02:54:54.475Z,96.12
2023-07-28T02:57:25.681Z,96.06
2023-07-28T02:59:56.505Z,96.02
2023-07-28T03:02:27.995Z,95.93
2023-07-28T03:04:58.803Z,95.99
2023-07-28T03:07:29.428Z,95.95
2023-07-28T03:10:00.065Z,95.90
2023-07-28T03:12:30.640Z,95.88
2023-07-28T03:15:01.546Z,95.85
2023-07-28T03:17:32.416Z,95.88
2023-07-28T03:20:03.539Z,95.83
2023-07-28T03:22:34.193Z,95.82
2023-07-28T03:25:05.497Z,95.72
2023-07-28T03:27:36.474Z,95.66
2023-07-28T03:30:11.716Z,95.77
2023-07-28T03:32:43.035Z,95.71
2023-07-28T03:35:15.237Z,95.62
2023-07-28T03:37:45.984Z,95.81
2023-07-28T03:40:16.739Z,95.73
2023-07-28T03:42:47.893Z,95.84
2023-07-28T03:45:18.543Z,95.68
2023-07-28T03:47:50.181Z,95.51
2023-07-28T03:50:20.837Z,95.55
2023-07-28T03:52:52.014Z,95.46
2023-07-28T03:55:22.860Z,95.47
2023-07-28T03:57:53.898Z,95.35
2023-07-28T04:00:24.898Z,95.31
2023-07-28T04:02:55.582Z,95.31
2023-07-28T04:05:26.524Z,95.18
2023-07-28T04:07:57.834Z,95.22
2023-07-28T04:10:28.853Z,95.03
2023-07-28T04:12:59.582Z,95.16
2023-07-28T04:15:30.458Z,94.95
2023-07-28T04:18:01.475Z,95.04
2023-07-28T04:20:32.768Z,94.99
2023-07-28T04:23:04.379Z,94.95
2023-07-28T04:25:35.489Z,94.89
2023-07-28T04:28:06.508Z,94.84
2023-07-28T04:30:37.698Z,94.88
2023-07-28T04:33:08.659Z,94.73
2023-07-28T04:35:39.670Z,94.69
2023-07-28T04:38:10.608Z,94.65
2023-07-28T04:40:42.161Z,94.61
2023-07-28T04:43:12.796Z,94.45
2023-07-28T04:45:43.572Z,94.33
2023-07-28T04:48:14.652Z,94.28
2023-07-28T04:50:46.340Z,94.06
2023-07-28T04:53:16.996Z,93.91
2023-07-28T04:55:48.006Z,93.81
2023-07-28T04:58:19.980Z,93.68
2023-07-28T05:00:50.673Z,93.71
2023-07-28T05:03:21.346Z,93.41
2023-07-28T05:05:51.975Z,93.38
2023-07-28T05:08:22.773Z,93.29
2023-07-28T05:10:53.778Z,93.36
2023-07-28T05:13:24.433Z,93.18
2023-07-28T05:15:54.971Z,93.16
2023-07-28T05:18:25.615Z,92.84
2023-07-28T05:20:56.343Z,92.68
2023-07-28T05:23:27.413Z,92.55
2023-07-28T05:25:58.362Z,92.30
2023-07-28T05:28:29.395Z,91.91
2023-07-28T05:31:07.337Z,92.01
2023-07-28T05:33:40.705Z,91.80
2023-07-28T05:36:11.760Z,91.72
2023-07-28T05:38:42.334Z,91.49
2023-07-28T05:41:13.149Z,91.48
2023-07-28T05:43:43.740Z,91.39
2023-07-28T05:46:15.330Z,91.34
2023-07-28T05:48:46.347Z,91.53
2023-07-28T05:51:17.003Z,91.26
2023-07-28T05:53:48.006Z,91.33
2023-07-28T05:56:19.113Z,91.22
2023-07-28T05:58:50.419Z,91.12
2023-07-28T06:01:21.270Z,90.92
2023-07-28T06:03:53.243Z,90.54
2023-07-28T06:06:24.204Z,90.35
2023-07-28T06:08:55.579Z,89.74
2023-07-28T06:11:27.462Z,89.55
2023-07-28T06:13:58.346Z,89.21
2023-07-28T06:16:29.405Z,88.96
2023-07-28T06:19:00.052Z,88.89
2023-07-28T06:21:31.118Z,88.77
2023-07-28T06:24:01.658Z,88.17
2023-07-28T06:26:32.266Z,87.47
2023-07-28T06:29:03.182Z,87.01
2023-07-28T06:31:34.279Z,86.66
2023-07-28T06:34:05.140Z,86.48
2023-07-28T06:36:35.868Z,86.61
2023-07-28T06:39:06.894Z,86.60
2023-07-28T06:41:37.764Z,86.66
2023-07-28T06:44:09.486Z,86.56
2023-07-28T06:46:40.131Z,86.18
2023-07-28T06:49:11.198Z,85.98
2023-07-28T06:51:42.222Z,85.72
2023-07-28T06:54:13.879Z,85.20
2023-07-28T06:56:44.758Z,84.95
2023-07-28T06:59:19.660Z,84.30
2023-07-28T07:01:51.819Z,83.79
2023-07-28T07:04:23.343Z,83.74
2023-07-28T07:06:54.460Z,83.07
2023-07-28T07:09:25.811Z,82.53
2023-07-28T07:11:57.068Z,82.27
2023-07-28T07:14:28.090Z,82.06
2023-07-28T07:16:58.789Z,81.74
2023-07-28T07:19:31.012Z,81.36
2023-07-28T07:22:02.955Z,80.85
2023-07-28T07:24:33.836Z,79.93
2023-07-28T07:27:04.911Z,80.31
2023-07-28T07:29:35.674Z,80.35
2023-07-28T07:32:07.337Z,79.75
2023-07-28T07:34:39.302Z,79.67
2023-07-28T07:37:11.529Z,79.77
2023-07-28T07:39:44.796Z,79.75
2023-07-28T07:42:16.234Z,79.33
2023-07-28T07:44:47.280Z,79.18
2023-07-28T07:47:18.482Z,79.20
2023-07-28T07:49:49.181Z,78.83
2023-07-28T07:52:20.345Z,78.98
2023-07-28T07:54:51.937Z,78.77
2023-07-28T07:57:22.631Z,78.54
2023-07-28T07:59:53.831Z,77.73
2023-07-28T08:02:24.827Z,77.98
2023-07-28T08:04:56.662Z,77.72
2023-07-28T08:07:27.900Z,77.23
2023-07-28T08:09:58.811Z,77.01
2023-07-28T08:12:29.668Z,76.92
2023-07-28T08:15:00.224Z,77.15
2023-07-28T08:17:30.830Z,77.42
2023-07-28T08:20:01.736Z,77.01
2023-07-28T08:22:33.331Z,75.75
2023-07-28T08:25:05.352Z,75.70
2023-07-28T08:27:36.353Z,75.53
2023-07-28T08:30:08.903Z,74.30
2023-07-28T08:32:39.555Z,74.33
2023-07-28T08:35:11.175Z,73.78
2023-07-28T08:37:42.340Z,73.62
2023-07-28T08:40:14.540Z,73.22
2023-07-28T08:42:46.174Z,71.96
2023-07-28T08:45:17.243Z,72.79
2023-07-28T08:47:48.068Z,72.77
2023-07-28T08:50:18.905Z,73.42
2023-07-28T08:52:51.482Z,73.38
2023-07-28T08:55:22.386Z,73.31
2023-07-28T08:57:53.007Z,74.77
2023-07-28T09:00:26.629Z,76.27
2023-07-28T09:02:58.034Z,77.77
2023-07-28T09:05:30.752Z,78.55
2023-07-28T09:08:03.168Z,79.43
2023-07-28T09:10:44.468Z,79.85
2023-07-28T09:13:18.115Z,79.65
2023-07-28T09:15:51.066Z,79.19
2023-07-28T09:18:23.401Z,79.02
2023-07-28T09:20:54.976Z,78.03
2023-07-28T09:23:31.740Z,77.42
2023-07-28T09:26:07.681Z,76.39
2023-07-28T09:28:43.078Z,75.62
2023-07-28T09:31:15.395Z,74.21
2023-07-28T09:33:48.153Z,73.31
2023-07-28T09:36:19.651Z,73.08
2023-07-28T09:38:51.046Z,73.95
2023-07-28T09:41:22.304Z,72.88
2023-07-28T09:43:54.158Z,70.95
2023-07-28T09:46:26.598Z,69.30
2023-07-28T09:49:01.192Z,68.10
2023-07-28T09:51:36.615Z,68.32
2023-07-28T09:54:13.778Z,66.15
2023-07-28T09:56:43.492Z,66.24
2023-07-28T09:59:19.366Z,66.80
2023-07-28T10:01:50.333Z,67.35
2023-07-28T10:04:22.137Z,68.60
2023-07-28T10:06:57.400Z,67.61
2023-07-28T10:09:30.987Z,66.04
2023-07-28T10:12:02.160Z,65.44
2023-07-28T10:14:36.085Z,65.23
2023-07-28T10:17:08.322Z,64.82
2023-07-28T10:19:42.221Z,64.92
2023-07-28T10:22:13.971Z,63.94
2023-07-28T10:25:03.047Z,62.58
2023-07-28T10:27:38.229Z,61.59
2023-07-28T10:30:14.565Z,61.69
2023-07-28T10:32:47.356Z,62.06
2023-07-28T10:35:28.320Z,61.69
2023-07-28T10:37:59.605Z,60.90
2023-07-28T10:40:35.737Z,59.91
2023-07-28T10:43:07.262Z,59.88
2023-07-28T10:45:38.272Z,60.31
2023-07-28T10:48:11.895Z,58.89
2023-07-28T10:50:43.276Z,59.92
2023-07-28T10:53:14.456Z,59.92
2023-07-28T10:55:46.221Z,60.78
2023-07-28T10:58:17.315Z,60.76
2023-07-28T11:00:49.068Z,59.54
2023-07-28T11:03:21.258Z,59.47
2023-07-28T11:05:53.707Z,60.96
2023-07-28T11:08:26.031Z,61.23
2023-07-28T11:10:57.679Z,60.34
2023-07-28T11:16:05.493Z,60.87
2023-07-28T11:18:37.573Z,60.78
2023-07-28T11:21:08.745Z,60.69
2023-07-28T11:23:41.219Z,60.26
2023-07-28T11:26:13.163Z,60.00
2023-07-28T11:28:44.134Z,60.83
2023-07-28T11:31:14.994Z,59.15
2023-07-28T11:33:45.934Z,58.72
2023-07-28T11:36:26.110Z,57.76
2023-07-28T11:38:59.311Z,58.62
2023-07-28T11:41:30.934Z,57.68
2023-07-28T11:44:02.804Z,58.35
2023-07-28T11:46:41.293Z,57.44
2023-07-28T11:49:13.734Z,57.17
2023-07-28T11:51:45.920Z,56.32
2023-07-28T11:54:17.440Z,56.56
2023-07-28T11:56:50.207Z,56.96
2023-07-28T11:59:22.012Z,56.90
2023-07-28T12:07:17.743Z,55.87
2023-07-28T12:10:03.256Z,55.71
2023-07-28T12:20:47.870Z,54.38
2023-07-28T12:25:56.665Z,53.85
2023-07-28T12:28:27.885Z,53.63
2023-07-28T12:31:00.338Z,53.21
2023-07-28T12:41:12.548Z,54.87
2023-07-28T12:46:17.577Z,55.48
2023-07-28T12:48:49.206Z,55.03
2023-07-28T12:53:53.285Z,54.97
2023-07-28T13:01:31.679Z,53.94
2023-07-28T13:04:02.699Z,54.95
2023-07-28T13:06:33.530Z,55.54
2023-07-28T13:14:11.724Z,54.79
2023-07-28T13:16:42.954Z,54.68
2023-07-28T13:19:13.692Z,53.40
2023-07-28T13:21:44.538Z,53.80
2023-07-28T13:24:15.110Z,54.37
2023-07-28T13:26:45.714Z,53.92
2023-07-28T13:29:16.708Z,53.59
2023-07-28T13:31:47.484Z,53.64
2023-07-28T13:34:18.211Z,53.41
2023-07-28T13:36:49.165Z,53.10
2023-07-28T13:39:20.536Z,52.67
2023-07-28T13:41:51.569Z,53.17
2023-07-28T13:44:23.020Z,51.93
2023-07-28T13:47:02.029Z,51.38
2023-07-28T13:49:32.850Z,52.04
2023-07-28T13:55:12.719Z,50.92
2023-07-28T13:57:28.330Z,50.17
2023-07-28T13:59:59.029Z,48.47
2023-07-28T14:02:30.329Z,49.87
2023-07-28T14:05:01.485Z,47.61
2023-07-28T14:07:32.422Z,47.23
2023-07-28T14:10:04.645Z,46.64
2023-07-28T14:12:36.794Z,46.67
2023-07-28T14:15:09.763Z,46.48
2023-07-28T14:17:40.605Z,47.16
2023-07-28T14:20:13.146Z,47.16
2023-07-28T14:22:44.655Z,45.80
2023-07-28T14:25:15.377Z,45.27
2023-07-28T14:27:46.317Z,45.60
2023-07-28T14:30:17.741Z,46.51
2023-07-28T14:32:48.810Z,46.14
2023-07-28T14:35:19.924Z,44.56
2023-07-28T14:37:50.955Z,44.05
2023-07-28T14:40:21.672Z,44.62
2023-07-28T14:42:52.360Z,44.76
2023-07-28T14:45:23.343Z,44.58
2023-07-28T14:47:53.903Z,44.41
2023-07-28T14:50:24.906Z,45.22
2023-07-28T14:52:55.779Z,46.15
2023-07-28T14:55:26.352Z,47.51
2023-07-28T14:57:57.226Z,48.91
2023-07-28T15:00:27.817Z,47.48
2023-07-28T15:02:58.544Z,47.46
2023-07-28T15:05:29.179Z,46.48
2023-07-28T15:08:01.290Z,44.97
2023-07-28T15:10:31.916Z,45.39
2023-07-28T15:13:02.923Z,45.13
2023-07-28T15:15:33.822Z,45.12
2023-07-28T15:18:04.665Z,44.96
2023-07-28T15:20:35.378Z,45.37
2023-07-28T15:23:06.044Z,45.35
2023-07-28T15:25:38.467Z,45.66
2023-07-28T15:28:09.029Z,45.27
2023-07-28T15:30:39.699Z,45.24
2023-07-28T15:33:10.803Z,45.00
2023-07-28T15:35:41.475Z,44.72
2023-07-28T15:38:12.366Z,44.52
2023-07-28T15:40:43.208Z,45.77
2023-07-28T15:43:13.980Z,45.26
2023-07-28T15:45:45.404Z,46.09
2023-07-28T15:48:15.982Z,46.34
2023-07-28T15:50:47.319Z,46.92
2023-07-28T15:53:17.940Z,46.59
2023-07-28T15:55:49.158Z,45.91
2023-07-28T15:58:20.426Z,46.09
2023-07-28T16:00:51.863Z,47.11
2023-07-28T16:03:22.671Z,47.67
2023-07-28T16:05:54.043Z,50.55
2023-07-28T16:08:25.157Z,54.77
2023-07-28T16:10:55.707Z,56.29
2023-07-28T16:13:26.756Z,57.02
2023-07-28T16:15:57.633Z,58.09
2023-07-28T16:18:29.070Z,59.63
2023-07-28T16:21:00.117Z,60.45
2023-07-28T16:23:31.260Z,62.35
2023-07-28T16:26:02.179Z,63.57
2023-07-28T16:28:32.879Z,65.12
2023-07-28T16:31:04.354Z,66.21
2023-07-28T16:33:35.013Z,67.51
2023-07-28T16:36:06.760Z,68.66
2023-07-28T16:38:37.778Z,69.05
2023-07-28T16:41:08.846Z,69.30
2023-07-28T16:43:39.947Z,69.88
2023-07-28T16:46:12.936Z,70.71
2023-07-28T16:48:44.032Z,71.57
2023-07-28T16:51:14.677Z,72.39
2023-07-28T16:53:45.653Z,72.66
2023-07-28T16:56:16.758Z,72.93
2023-07-28T16:58:47.580Z,72.57
2023-07-28T17:01:20.387Z,72.31
2023-07-28T17:03:51.452Z,71.67
2023-07-28T17:06:22.049Z,70.36
2023-07-28T17:08:53.157Z,68.66
2023-07-28T17:11:24.155Z,67.35
2023-07-28T17:13:54.764Z,66.01
2023-07-28T17:16:26.124Z,65.55
2023-07-28T17:18:57.006Z,64.10
2023-07-28T17:21:27.962Z,62.95
2023-07-28T17:23:58.959Z,60.04
2023-07-28T17:26:29.630Z,58.80
2023-07-28T17:29:00.697Z,56.38
2023-07-28T17:31:31.416Z,55.72
2023-07-28T17:34:03.111Z,54.98
2023-07-28T17:36:34.048Z,56.12
2023-07-28T17:39:04.704Z,57.13
2023-07-28T17:41:35.940Z,56.36
2023-07-28T17:44:07.190Z,55.07
2023-07-28T17:46:38.164Z,54.68
2023-07-28T17:49:09.253Z,54.05
2023-07-28T17:51:39.938Z,54.18
2023-07-28T17:54:11.459Z,54.03
2023-07-28T17:56:42.392Z,53.48
2023-07-28T17:59:12.960Z,52.99
2023-07-28T18:01:43.604Z,52.54
2023-07-28T18:04:14.265Z,51.93
2023-07-28T18:06:44.865Z,51.65
2023-07-28T18:09:15.966Z,51.90
2023-07-28T18:11:46.522Z,52.12
2023-07-28T18:14:17.600Z,52.23
2023-07-28T18:16:48.235Z,52.44
2023-07-28T18:19:18.823Z,53.16
2023-07-28T18:21:50.070Z,53.65
2023-07-28T18:24:21.423Z,54.46
2023-07-28T18:26:52.105Z,54.97
2023-07-28T18:29:22.948Z,55.67
2023-07-28T18:31:53.784Z,55.56
2023-07-28T18:34:24.425Z,55.37
2023-07-28T18:36:55.261Z,56.12
2023-07-28T18:39:25.868Z,57.10
2023-07-28T18:41:56.785Z,57.97
2023-07-28T18:44:27.607Z,59.23
2023-07-28T18:46:58.646Z,60.10
2023-07-28T18:49:30.587Z,61.04
2023-07-28T18:52:01.416Z,62.06
2023-07-28T18:54:32.285Z,62.82
2023-07-28T18:57:02.936Z,63.65
2023-07-28T18:59:33.812Z,64.49
2023-07-28T19:02:04.666Z,65.62
2023-07-28T19:04:35.674Z,66.51
2023-07-28T19:07:06.613Z,67.34
2023-07-28T19:09:38.774Z,68.12
2023-07-28T19:12:10.700Z,68.78
2023-07-28T19:14:43.425Z,69.31
2023-07-28T19:17:16.531Z,69.90
2023-07-28T19:19:47.803Z,70.47
2023-07-28T19:22:18.340Z,70.97
2023-07-28T19:24:50.393Z,71.38
2023-07-28T19:27:21.598Z,71.84
2023-07-28T19:29:53.344Z,72.37
2023-07-28T19:32:26.222Z,72.75
2023-07-28T19:34:57.026Z,73.10
2023-07-28T19:37:43.043Z,73.67
2023-07-28T19:40:16.135Z,74.18
2023-07-28T19:42:46.978Z,74.43
2023-07-28T19:45:17.830Z,74.81
2023-07-28T19:47:48.985Z,75.04
2023-07-28T19:50:34.478Z,75.38
2023-07-28T19:53:11.002Z,75.76
2023-07-28T19:55:44.362Z,76.12
2023-07-28T19:58:15.978Z,76.41
2023-07-28T20:00:46.635Z,76.65
2023-07-28T20:03:17.623Z,76.78
2023-07-28T20:05:49.078Z,77.09
2023-07-28T20:08:20.015Z,77.37
2023-07-28T20:10:51.267Z,77.57
2023-07-28T20:13:22.075Z,77.58
2023-07-28T20:15:54.837Z,77.56
2023-07-28T20:18:25.354Z,77.55
2023-07-28T20:20:56.392Z,77.59
2023-07-28T20:23:27.322Z,77.96
2023-07-28T20:25:57.809Z,78.12
2023-07-28T20:28:28.833Z,78.25
2023-07-28T20:30:59.936Z,78.46
2023-07-28T20:33:30.927Z,78.68
2023-07-28T20:36:01.942Z,79.02
2023-07-28T20:38:33.565Z,79.33
2023-07-28T20:41:04.538Z,79.73
2023-07-28T20:43:35.388Z,79.96
2023-07-28T20:46:05.913Z,80.40
2023-07-28T20:48:36.499Z,80.83
2023-07-28T20:51:07.529Z,81.27
2023-07-28T20:53:38.894Z,81.61
2023-07-28T20:56:11.531Z,81.84
2023-07-28T20:58:43.886Z,81.76
2023-07-28T21:01:15.203Z,81.69
2023-07-28T21:03:47.001Z,81.96
2023-07-28T21:06:17.866Z,82.02
2023-07-28T21:08:48.857Z,81.71
2023-07-28T21:11:19.853Z,81.36
2023-07-28T21:13:51.174Z,81.29
2023-07-28T21:16:21.759Z,81.11
2023-07-28T21:18:52.964Z,80.74
2023-07-28T21:21:24.748Z,80.80
2023-07-28T21:23:55.478Z,81.55
2023-07-28T21:26:26.183Z,82.08
2023-07-28T21:28:56.907Z,82.27
2023-07-28T21:31:27.874Z,82.59
2023-07-28T21:33:58.972Z,82.89
2023-07-28T21:36:30.184Z,83.28
2023-07-28T21:39:01.800Z,83.63
2023-07-28T21:41:32.439Z,83.82
2023-07-28T21:44:03.205Z,83.95
2023-07-28T21:46:36.011Z,84.35
2023-07-28T21:49:07.452Z,84.59
2023-07-28T21:51:38.166Z,84.78
2023-07-28T21:54:09.215Z,84.85
2023-07-28T21:56:40.220Z,85.14
2023-07-28T21:59:11.712Z,85.07
2023-07-28T22:01:42.656Z,85.29
2023-07-28T22:04:13.605Z,85.34
2023-07-28T22:06:44.596Z,85.59
2023-07-28T22:09:15.892Z,85.62
2023-07-28T22:11:46.684Z,85.62
2023-07-28T22:14:18.359Z,85.49
2023-07-28T22:16:49.668Z,85.47
2023-07-28T22:19:21.141Z,85.32
2023-07-28T22:21:52.322Z,85.30
2023-07-28T22:24:23.498Z,85.32
2023-07-28T22:26:54.613Z,85.44
2023-07-28T22:29:25.614Z,85.40
2023-07-28T22:31:56.297Z,85.32
2023-07-28T22:34:27.083Z,85.50
2023-07-28T22:36:57.912Z,85.63
2023-07-28T22:39:29.328Z,85.64
2023-07-28T22:42:00.283Z,85.67
2023-07-28T22:44:30.939Z,85.78
2023-07-28T22:47:02.356Z,85.80
2023-07-28T22:49:32.934Z,85.77
2023-07-28T22:52:03.893Z,85.79
2023-07-28T22:54:35.635Z,85.84
2023-07-28T22:57:06.963Z,85.72
2023-07-28T22:59:39.151Z,85.78
2023-07-28T23:02:09.914Z,85.82
2023-07-28T23:04:40.866Z,85.97
2023-07-28T23:07:11.973Z,85.94
2023-07-28T23:09:45.917Z,86.00
2023-07-28T23:12:16.519Z,86.12
2023-07-28T23:14:47.440Z,86.05
2023-07-28T23:17:18.764Z,86.12
2023-07-28T23:19:50.361Z,86.02
2023-07-28T23:22:20.850Z,86.28
2023-07-28T23:24:51.610Z,86.57
2023-07-28T23:27:23.150Z,86.42
2023-07-28T23:29:53.899Z,86.35
2023-07-28T23:32:24.567Z,86.36
2023-07-28T23:34:56.239Z,86.34
2023-07-28T23:37:27.852Z,86.39
2023-07-28T23:39:58.829Z,85.95
2023-07-28T23:42:30.303Z,85.55
2023-07-28T23:45:01.025Z,85.59
2023-07-28T23:47:31.738Z,85.38
2023-07-28T23:50:02.650Z,84.77
2023-07-28T23:52:33.251Z,84.56
2023-07-28T23:55:03.951Z,84.39
2023-07-28T23:57:34.877Z,84.29
